sensor_id;sensor_type;location;lat;lon;timestamp;temperature;humidity
71142;DHT22;58808;59.366;17.970;2023-02-11T00:02:02;1.30;99.90
71142;DHT22;58808;59.366;17.970;2023-02-11T00:04:30;1.30;99.90
71142;DHT22;58808;59.366;17.970;2023-02-11T00:06:55;1.30;99.90
71142;DHT22;58808;59.366;17.970;2023-02-11T00:09:21;1.30;99.90
71142;DHT22;58808;59.366;17.970;2023-02-11T00:11:47;1.40;99.90
71142;DHT22;58808;59.366;17.970;2023-02-11T00:14:13;1.40;99.90
71142;DHT22;58808;59.366;17.970;2023-02-11T00:16:39;1.40;99.90
71142;DHT22;58808;59.366;17.970;2023-02-11T00:19:05;1.40;99.90
71142;DHT22;58808;59.366;17.970;2023-02-11T00:21:32;1.40;99.90
71142;DHT22;58808;59.366;17.970;2023-02-11T00:23:58;1.40;99.90
71142;DHT22;58808;59.366;17.970;2023-02-11T00:26:35;1.40;99.90
71142;DHT22;58808;59.366;17.970;2023-02-11T00:29:01;1.40;99.90
71142;DHT22;58808;59.366;17.970;2023-02-11T00:31:27;1.40;99.90
71142;DHT22;58808;59.366;17.970;2023-02-11T00:33:53;1.50;99.90
71142;DHT22;58808;59.366;17.970;2023-02-11T00:36:22;1.50;99.90
71142;DHT22;58808;59.366;17.970;2023-02-11T00:38:50;1.50;99.90
71142;DHT22;58808;59.366;17.970;2023-02-11T00:41:16;1.50;99.90
71142;DHT22;58808;59.366;17.970;2023-02-11T00:43:42;1.50;99.90
71142;DHT22;58808;59.366;17.970;2023-02-11T00:46:09;1.50;99.90
71142;DHT22;58808;59.366;17.970;2023-02-11T00:48:35;1.50;99.90
71142;DHT22;58808;59.366;17.970;2023-02-11T00:51:01;1.60;99.90
71142;DHT22;58808;59.366;17.970;2023-02-11T00:53:28;1.60;99.90
71142;DHT22;58808;59.366;17.970;2023-02-11T00:55:54;1.60;99.90
71142;DHT22;58808;59.366;17.970;2023-02-11T00:58:20;1.50;99.90
71142;DHT22;58808;59.366;17.970;2023-02-11T01:00:47;1.60;99.90
71142;DHT22;58808;59.366;17.970;2023-02-11T01:03:12;1.60;99.90
71142;DHT22;58808;59.366;17.970;2023-02-11T01:05:38;1.60;99.90
71142;DHT22;58808;59.366;17.970;2023-02-11T01:08:04;1.70;99.90
71142;DHT22;58808;59.366;17.970;2023-02-11T01:10:30;1.60;99.90
71142;DHT22;58808;59.366;17.970;2023-02-11T01:12:56;1.70;99.90
71142;DHT22;58808;59.366;17.970;2023-02-11T01:15:23;1.70;99.90
71142;DHT22;58808;59.366;17.970;2023-02-11T01:17:49;1.70;99.90
71142;DHT22;58808;59.366;17.970;2023-02-11T01:20:20;1.70;99.90
71142;DHT22;58808;59.366;17.970;2023-02-11T01:22:47;1.80;99.90
71142;DHT22;58808;59.366;17.970;2023-02-11T01:25:13;1.80;99.90
71142;DHT22;58808;59.366;17.970;2023-02-11T01:27:38;1.80;99.90
71142;DHT22;58808;59.366;17.970;2023-02-11T01:30:06;1.80;99.90
71142;DHT22;58808;59.366;17.970;2023-02-11T01:32:33;1.80;99.90
71142;DHT22;58808;59.366;17.970;2023-02-11T01:34:59;1.80;99.90
71142;DHT22;58808;59.366;17.970;2023-02-11T01:37:25;1.80;99.90
71142;DHT22;58808;59.366;17.970;2023-02-11T01:39:51;1.80;99.90
71142;DHT22;58808;59.366;17.970;2023-02-11T01:42:21;1.90;99.90
71142;DHT22;58808;59.366;17.970;2023-02-11T01:44:50;1.80;99.90
71142;DHT22;58808;59.366;17.970;2023-02-11T01:47:16;1.90;99.90
71142;DHT22;58808;59.366;17.970;2023-02-11T01:49:46;1.90;99.90
71142;DHT22;58808;59.366;17.970;2023-02-11T01:52:41;1.90;99.90
71142;DHT22;58808;59.366;17.970;2023-02-11T01:55:11;1.90;99.90
71142;DHT22;58808;59.366;17.970;2023-02-11T01:57:58;1.90;99.90
71142;DHT22;58808;59.366;17.970;2023-02-11T02:00:38;1.90;99.90
71142;DHT22;58808;59.366;17.970;2023-02-11T02:03:08;1.90;99.90
71142;DHT22;58808;59.366;17.970;2023-02-11T02:10:54;2.00;99.90
71142;DHT22;58808;59.366;17.970;2023-02-11T02:13:24;2.00;99.90
71142;DHT22;58808;59.366;17.970;2023-02-11T02:15:57;2.00;99.90
71142;DHT22;58808;59.366;17.970;2023-02-11T02:28:45;2.10;99.90
71142;DHT22;58808;59.366;17.970;2023-02-11T02:34:35;2.10;99.90
71142;DHT22;58808;59.366;17.970;2023-02-11T02:37:11;2.10;99.90
71142;DHT22;58808;59.366;17.970;2023-02-11T02:39:39;2.10;99.90
71142;DHT22;58808;59.366;17.970;2023-02-11T02:42:05;2.10;99.90
71142;DHT22;58808;59.366;17.970;2023-02-11T02:44:32;2.10;99.90
71142;DHT22;58808;59.366;17.970;2023-02-11T02:46:58;2.10;99.90
71142;DHT22;58808;59.366;17.970;2023-02-11T02:49:24;2.10;99.90
71142;DHT22;58808;59.366;17.970;2023-02-11T02:55:02;2.10;99.90
71142;DHT22;58808;59.366;17.970;2023-02-11T03:05:48;2.10;99.90
71142;DHT22;58808;59.366;17.970;2023-02-11T03:10:50;2.20;99.90
71142;DHT22;58808;59.366;17.970;2023-02-11T03:13:19;2.20;99.90
71142;DHT22;58808;59.366;17.970;2023-02-11T03:15:50;2.20;99.90
71142;DHT22;58808;59.366;17.970;2023-02-11T03:18:19;2.20;99.90
71142;DHT22;58808;59.366;17.970;2023-02-11T03:20:49;2.30;99.90
71142;DHT22;58808;59.366;17.970;2023-02-11T03:23:29;2.30;99.90
71142;DHT22;58808;59.366;17.970;2023-02-11T03:28:57;2.40;99.90
71142;DHT22;58808;59.366;17.970;2023-02-11T03:31:30;2.40;99.90
71142;DHT22;58808;59.366;17.970;2023-02-11T03:34:06;2.40;99.90
71142;DHT22;58808;59.366;17.970;2023-02-11T03:36:41;2.40;99.90
71142;DHT22;58808;59.366;17.970;2023-02-11T03:39:17;2.40;99.90
71142;DHT22;58808;59.366;17.970;2023-02-11T03:41:44;2.40;99.90
71142;DHT22;58808;59.366;17.970;2023-02-11T03:44:14;2.40;99.90
71142;DHT22;58808;59.366;17.970;2023-02-11T03:46:45;2.30;99.90
71142;DHT22;58808;59.366;17.970;2023-02-11T03:49:14;2.30;99.90
71142;DHT22;58808;59.366;17.970;2023-02-11T03:51:42;2.20;99.90
71142;DHT22;58808;59.366;17.970;2023-02-11T03:54:12;2.10;99.90
71142;DHT22;58808;59.366;17.970;2023-02-11T03:56:50;2.10;99.90
71142;DHT22;58808;59.366;17.970;2023-02-11T03:59:17;2.00;99.90
71142;DHT22;58808;59.366;17.970;2023-02-11T04:01:42;2.00;99.90
71142;DHT22;58808;59.366;17.970;2023-02-11T04:04:08;1.90;99.90
71142;DHT22;58808;59.366;17.970;2023-02-11T04:06:34;1.90;99.90
71142;DHT22;58808;59.366;17.970;2023-02-11T04:08:59;1.80;99.90
71142;DHT22;58808;59.366;17.970;2023-02-11T04:11:25;1.80;99.90
71142;DHT22;58808;59.366;17.970;2023-02-11T04:13:51;1.80;99.90
71142;DHT22;58808;59.366;17.970;2023-02-11T04:16:17;1.80;99.90
71142;DHT22;58808;59.366;17.970;2023-02-11T04:18:42;1.70;99.90
71142;DHT22;58808;59.366;17.970;2023-02-11T04:21:08;1.70;99.90
71142;DHT22;58808;59.366;17.970;2023-02-11T04:23:34;1.70;99.90
71142;DHT22;58808;59.366;17.970;2023-02-11T04:25:59;1.70;99.90
71142;DHT22;58808;59.366;17.970;2023-02-11T04:28:25;1.60;99.90
71142;DHT22;58808;59.366;17.970;2023-02-11T04:30:54;1.60;99.90
71142;DHT22;58808;59.366;17.970;2023-02-11T04:33:20;1.60;99.90
71142;DHT22;58808;59.366;17.970;2023-02-11T04:35:46;1.50;99.90
71142;DHT22;58808;59.366;17.970;2023-02-11T04:38:12;1.50;99.90
71142;DHT22;58808;59.366;17.970;2023-02-11T04:40:38;1.50;99.90
71142;DHT22;58808;59.366;17.970;2023-02-11T04:43:04;1.50;99.90
71142;DHT22;58808;59.366;17.970;2023-02-11T04:45:30;1.50;99.90
71142;DHT22;58808;59.366;17.970;2023-02-11T04:47:55;1.40;99.90
71142;DHT22;58808;59.366;17.970;2023-02-11T04:50:21;1.40;99.90
71142;DHT22;58808;59.366;17.970;2023-02-11T04:52:47;1.40;99.90
71142;DHT22;58808;59.366;17.970;2023-02-11T04:55:13;1.40;99.90
71142;DHT22;58808;59.366;17.970;2023-02-11T04:57:39;1.40;99.90
71142;DHT22;58808;59.366;17.970;2023-02-11T05:00:05;1.40;99.90
71142;DHT22;58808;59.366;17.970;2023-02-11T05:02:31;1.30;99.90
71142;DHT22;58808;59.366;17.970;2023-02-11T05:04:57;1.30;99.90
71142;DHT22;58808;59.366;17.970;2023-02-11T05:07:22;1.30;99.90
71142;DHT22;58808;59.366;17.970;2023-02-11T05:09:48;1.30;99.90
71142;DHT22;58808;59.366;17.970;2023-02-11T05:12:14;1.30;99.90
71142;DHT22;58808;59.366;17.970;2023-02-11T05:14:40;1.30;99.90
71142;DHT22;58808;59.366;17.970;2023-02-11T05:17:05;1.20;99.90
71142;DHT22;58808;59.366;17.970;2023-02-11T05:19:31;1.20;99.90
71142;DHT22;58808;59.366;17.970;2023-02-11T05:21:57;1.20;99.90
71142;DHT22;58808;59.366;17.970;2023-02-11T05:24:23;1.10;99.90
71142;DHT22;58808;59.366;17.970;2023-02-11T05:26:49;1.10;99.90
71142;DHT22;58808;59.366;17.970;2023-02-11T05:29:14;1.10;99.90
71142;DHT22;58808;59.366;17.970;2023-02-11T05:31:40;1.00;99.90
71142;DHT22;58808;59.366;17.970;2023-02-11T05:34:06;0.90;99.90
71142;DHT22;58808;59.366;17.970;2023-02-11T05:36:31;0.90;99.90
71142;DHT22;58808;59.366;17.970;2023-02-11T05:38:57;0.80;99.90
71142;DHT22;58808;59.366;17.970;2023-02-11T05:41:23;0.80;99.90
71142;DHT22;58808;59.366;17.970;2023-02-11T05:43:49;0.80;99.90
71142;DHT22;58808;59.366;17.970;2023-02-11T05:46:18;0.70;99.90
71142;DHT22;58808;59.366;17.970;2023-02-11T05:48:43;0.70;99.90
71142;DHT22;58808;59.366;17.970;2023-02-11T05:51:09;0.60;99.90
71142;DHT22;58808;59.366;17.970;2023-02-11T05:53:35;0.60;99.90
71142;DHT22;58808;59.366;17.970;2023-02-11T05:56:01;0.60;99.90
71142;DHT22;58808;59.366;17.970;2023-02-11T05:58:27;0.60;99.90
71142;DHT22;58808;59.366;17.970;2023-02-11T06:00:53;0.50;99.90
71142;DHT22;58808;59.366;17.970;2023-02-11T06:03:19;0.50;99.90
71142;DHT22;58808;59.366;17.970;2023-02-11T06:05:45;0.50;99.90
71142;DHT22;58808;59.366;17.970;2023-02-11T06:08:11;0.50;99.90
71142;DHT22;58808;59.366;17.970;2023-02-11T06:10:37;0.50;99.90
71142;DHT22;58808;59.366;17.970;2023-02-11T06:13:03;0.50;99.90
71142;DHT22;58808;59.366;17.970;2023-02-11T06:15:29;0.50;99.90
71142;DHT22;58808;59.366;17.970;2023-02-11T06:17:55;0.50;99.90
71142;DHT22;58808;59.366;17.970;2023-02-11T06:20:21;0.50;99.90
71142;DHT22;58808;59.366;17.970;2023-02-11T06:22:46;0.50;99.90
71142;DHT22;58808;59.366;17.970;2023-02-11T06:25:13;0.50;99.90
71142;DHT22;58808;59.366;17.970;2023-02-11T06:27:39;0.40;99.90
71142;DHT22;58808;59.366;17.970;2023-02-11T06:30:06;0.40;99.90
71142;DHT22;58808;59.366;17.970;2023-02-11T06:32:32;0.30;99.90
71142;DHT22;58808;59.366;17.970;2023-02-11T06:34:59;0.30;99.90
71142;DHT22;58808;59.366;17.970;2023-02-11T06:37:24;0.30;99.90
71142;DHT22;58808;59.366;17.970;2023-02-11T06:39:50;0.30;99.90
71142;DHT22;58808;59.366;17.970;2023-02-11T06:42:16;0.30;99.90
71142;DHT22;58808;59.366;17.970;2023-02-11T06:44:41;0.30;99.90
71142;DHT22;58808;59.366;17.970;2023-02-11T06:47:07;0.30;99.90
71142;DHT22;58808;59.366;17.970;2023-02-11T06:49:33;0.30;99.90
71142;DHT22;58808;59.366;17.970;2023-02-11T06:51:58;0.20;99.90
71142;DHT22;58808;59.366;17.970;2023-02-11T06:54:24;0.20;99.90
71142;DHT22;58808;59.366;17.970;2023-02-11T06:56:50;0.20;99.90
71142;DHT22;58808;59.366;17.970;2023-02-11T06:59:17;0.20;99.90
71142;DHT22;58808;59.366;17.970;2023-02-11T07:01:43;0.10;99.90
71142;DHT22;58808;59.366;17.970;2023-02-11T07:04:09;0.20;99.90
71142;DHT22;58808;59.366;17.970;2023-02-11T07:06:35;0.10;99.90
71142;DHT22;58808;59.366;17.970;2023-02-11T07:09:03;0.10;99.90
71142;DHT22;58808;59.366;17.970;2023-02-11T07:11:29;0.10;99.90
71142;DHT22;58808;59.366;17.970;2023-02-11T07:13:59;0.00;99.90
71142;DHT22;58808;59.366;17.970;2023-02-11T07:16:25;0.00;99.90
71142;DHT22;58808;59.366;17.970;2023-02-11T07:18:51;0.10;99.90
71142;DHT22;58808;59.366;17.970;2023-02-11T07:21:19;0.00;99.90
71142;DHT22;58808;59.366;17.970;2023-02-11T07:23:45;0.00;99.90
71142;DHT22;58808;59.366;17.970;2023-02-11T07:26:13;0.00;99.90
71142;DHT22;58808;59.366;17.970;2023-02-11T07:28:40;0.00;99.90
71142;DHT22;58808;59.366;17.970;2023-02-11T07:31:21;0.00;99.90
71142;DHT22;58808;59.366;17.970;2023-02-11T07:33:47;0.10;99.90
71142;DHT22;58808;59.366;17.970;2023-02-11T07:36:14;0.10;99.90
71142;DHT22;58808;59.366;17.970;2023-02-11T07:38:41;0.10;99.90
71142;DHT22;58808;59.366;17.970;2023-02-11T07:41:09;0.10;99.90
71142;DHT22;58808;59.366;17.970;2023-02-11T07:43:35;0.10;99.90
71142;DHT22;58808;59.366;17.970;2023-02-11T07:46:13;0.10;99.90
71142;DHT22;58808;59.366;17.970;2023-02-11T07:48:39;0.10;99.90
71142;DHT22;58808;59.366;17.970;2023-02-11T07:51:13;0.10;99.90
71142;DHT22;58808;59.366;17.970;2023-02-11T07:53:40;0.10;99.90
71142;DHT22;58808;59.366;17.970;2023-02-11T07:56:07;0.20;99.90
71142;DHT22;58808;59.366;17.970;2023-02-11T07:58:34;0.30;99.90
71142;DHT22;58808;59.366;17.970;2023-02-11T08:01:05;0.30;99.90
71142;DHT22;58808;59.366;17.970;2023-02-11T08:03:32;0.30;99.90
71142;DHT22;58808;59.366;17.970;2023-02-11T08:05:57;0.20;99.90
71142;DHT22;58808;59.366;17.970;2023-02-11T08:08:26;0.20;99.90
71142;DHT22;58808;59.366;17.970;2023-02-11T08:10:52;0.20;99.90
71142;DHT22;58808;59.366;17.970;2023-02-11T08:13:18;0.20;99.90
71142;DHT22;58808;59.366;17.970;2023-02-11T08:15:43;0.20;99.90
71142;DHT22;58808;59.366;17.970;2023-02-11T08:18:09;0.30;99.90
71142;DHT22;58808;59.366;17.970;2023-02-11T08:20:35;0.20;99.90
71142;DHT22;58808;59.366;17.970;2023-02-11T08:23:00;0.30;99.90
71142;DHT22;58808;59.366;17.970;2023-02-11T08:25:27;0.30;99.90
71142;DHT22;58808;59.366;17.970;2023-02-11T08:27:52;0.30;99.90
71142;DHT22;58808;59.366;17.970;2023-02-11T08:30:18;0.40;99.90
71142;DHT22;58808;59.366;17.970;2023-02-11T08:32:44;0.30;99.90
71142;DHT22;58808;59.366;17.970;2023-02-11T08:35:10;0.30;99.90
71142;DHT22;58808;59.366;17.970;2023-02-11T08:37:37;0.30;99.90
71142;DHT22;58808;59.366;17.970;2023-02-11T08:40:03;0.30;99.90
71142;DHT22;58808;59.366;17.970;2023-02-11T08:42:28;0.20;99.90
71142;DHT22;58808;59.366;17.970;2023-02-11T08:44:54;0.20;99.90
71142;DHT22;58808;59.366;17.970;2023-02-11T08:47:20;0.20;99.90
71142;DHT22;58808;59.366;17.970;2023-02-11T08:49:47;0.20;99.90
71142;DHT22;58808;59.366;17.970;2023-02-11T08:52:12;0.10;99.90
71142;DHT22;58808;59.366;17.970;2023-02-11T08:54:38;0.20;99.90
71142;DHT22;58808;59.366;17.970;2023-02-11T08:57:04;0.20;99.90
71142;DHT22;58808;59.366;17.970;2023-02-11T08:59:30;0.10;99.90
71142;DHT22;58808;59.366;17.970;2023-02-11T09:01:55;0.10;99.90
71142;DHT22;58808;59.366;17.970;2023-02-11T09:04:21;0.00;99.90
71142;DHT22;58808;59.366;17.970;2023-02-11T09:06:47;0.00;99.90
71142;DHT22;58808;59.366;17.970;2023-02-11T09:09:14;0.10;99.90
71142;DHT22;58808;59.366;17.970;2023-02-11T09:11:42;0.10;99.90
71142;DHT22;58808;59.366;17.970;2023-02-11T09:14:15;0.20;99.90
71142;DHT22;58808;59.366;17.970;2023-02-11T09:16:42;0.10;99.90
71142;DHT22;58808;59.366;17.970;2023-02-11T09:19:08;0.10;99.90
71142;DHT22;58808;59.366;17.970;2023-02-11T09:21:34;0.20;99.90
71142;DHT22;58808;59.366;17.970;2023-02-11T09:24:00;0.10;99.90
71142;DHT22;58808;59.366;17.970;2023-02-11T09:26:31;0.20;99.90
71142;DHT22;58808;59.366;17.970;2023-02-11T09:28:57;0.20;99.90
71142;DHT22;58808;59.366;17.970;2023-02-11T09:31:26;0.20;99.90
71142;DHT22;58808;59.366;17.970;2023-02-11T09:33:55;0.30;99.90
71142;DHT22;58808;59.366;17.970;2023-02-11T09:36:24;0.30;99.90
71142;DHT22;58808;59.366;17.970;2023-02-11T09:38:51;0.20;99.90
71142;DHT22;58808;59.366;17.970;2023-02-11T09:43:54;0.20;99.90
71142;DHT22;58808;59.366;17.970;2023-02-11T09:46:22;0.20;99.90
71142;DHT22;58808;59.366;17.970;2023-02-11T09:48:52;0.10;99.90
71142;DHT22;58808;59.366;17.970;2023-02-11T09:51:28;0.10;99.90
71142;DHT22;58808;59.366;17.970;2023-02-11T09:54:03;0.10;99.90
71142;DHT22;58808;59.366;17.970;2023-02-11T09:56:30;0.10;99.90
71142;DHT22;58808;59.366;17.970;2023-02-11T09:58:55;0.00;99.90
71142;DHT22;58808;59.366;17.970;2023-02-11T10:01:38;0.00;99.90
71142;DHT22;58808;59.366;17.970;2023-02-11T10:15:30;0.00;99.90
71142;DHT22;58808;59.366;17.970;2023-02-11T10:22:53;0.00;99.90
71142;DHT22;58808;59.366;17.970;2023-02-11T10:25:35;0.00;99.90
71142;DHT22;58808;59.366;17.970;2023-02-11T10:28:17;0.00;99.90
71142;DHT22;58808;59.366;17.970;2023-02-11T10:33:30;0.00;99.90
71142;DHT22;58808;59.366;17.970;2023-02-11T10:35:57;0.00;99.90
71142;DHT22;58808;59.366;17.970;2023-02-11T10:38:24;0.00;99.90
71142;DHT22;58808;59.366;17.970;2023-02-11T10:40:50;0.00;99.90
71142;DHT22;58808;59.366;17.970;2023-02-11T10:43:17;-0.10;99.90
71142;DHT22;58808;59.366;17.970;2023-02-11T10:45:48;-0.10;99.90
71142;DHT22;58808;59.366;17.970;2023-02-11T10:48:46;0.00;99.90
71142;DHT22;58808;59.366;17.970;2023-02-11T10:51:26;0.00;99.90
71142;DHT22;58808;59.366;17.970;2023-02-11T10:56:40;0.00;99.90
71142;DHT22;58808;59.366;17.970;2023-02-11T11:01:49;0.10;99.90
71142;DHT22;58808;59.366;17.970;2023-02-11T11:04:39;0.10;99.90
71142;DHT22;58808;59.366;17.970;2023-02-11T11:07:22;0.10;99.90
71142;DHT22;58808;59.366;17.970;2023-02-11T11:15:22;0.10;99.90
71142;DHT22;58808;59.366;17.970;2023-02-11T11:18:07;0.10;99.90
71142;DHT22;58808;59.366;17.970;2023-02-11T11:20:33;0.10;99.90
71142;DHT22;58808;59.366;17.970;2023-02-11T11:23:19;0.10;99.90
71142;DHT22;58808;59.366;17.970;2023-02-11T11:26:19;0.10;99.90
71142;DHT22;58808;59.366;17.970;2023-02-11T11:31:35;0.10;99.90
71142;DHT22;58808;59.366;17.970;2023-02-11T11:36:56;0.00;99.90
71142;DHT22;58808;59.366;17.970;2023-02-11T11:39:26;0.10;99.90
71142;DHT22;58808;59.366;17.970;2023-02-11T11:41:59;0.00;99.90
71142;DHT22;58808;59.366;17.970;2023-02-11T11:44:28;0.00;99.90
71142;DHT22;58808;59.366;17.970;2023-02-11T11:49:49;0.00;99.90
71142;DHT22;58808;59.366;17.970;2023-02-11T11:54:57;0.10;99.90
71142;DHT22;58808;59.366;17.970;2023-02-11T11:57:36;0.20;99.90
71142;DHT22;58808;59.366;17.970;2023-02-11T12:00:03;0.20;99.90
71142;DHT22;58808;59.366;17.970;2023-02-11T12:05:16;0.30;99.90
71142;DHT22;58808;59.366;17.970;2023-02-11T12:13:34;0.30;99.90
71142;DHT22;58808;59.366;17.970;2023-02-11T12:22:18;0.20;99.90
71142;DHT22;58808;59.366;17.970;2023-02-11T12:27:28;0.30;99.90
71142;DHT22;58808;59.366;17.970;2023-02-11T12:36:05;0.40;99.90
71142;DHT22;58808;59.366;17.970;2023-02-11T12:41:14;0.50;99.90
71142;DHT22;58808;59.366;17.970;2023-02-11T12:43:42;0.50;99.90
71142;DHT22;58808;59.366;17.970;2023-02-11T12:46:30;0.50;99.90
71142;DHT22;58808;59.366;17.970;2023-02-11T12:54:34;0.70;99.90
71142;DHT22;58808;59.366;17.970;2023-02-11T12:57:10;0.80;99.90
71142;DHT22;58808;59.366;17.970;2023-02-11T13:02:53;0.80;99.90
71142;DHT22;58808;59.366;17.970;2023-02-11T13:05:33;1.00;99.90
71142;DHT22;58808;59.366;17.970;2023-02-11T13:08:12;1.20;99.90
71142;DHT22;58808;59.366;17.970;2023-02-11T13:10:49;1.40;99.90
71142;DHT22;58808;59.366;17.970;2023-02-11T13:13:46;1.50;99.90
71142;DHT22;58808;59.366;17.970;2023-02-11T13:26:57;1.90;99.90
71142;DHT22;58808;59.366;17.970;2023-02-11T13:32:09;1.70;99.90
71142;DHT22;58808;59.366;17.970;2023-02-11T13:37:37;1.40;99.90
71142;DHT22;58808;59.366;17.970;2023-02-11T13:42:55;1.10;99.90
71142;DHT22;58808;59.366;17.970;2023-02-11T13:45:39;1.10;99.90
71142;DHT22;58808;59.366;17.970;2023-02-11T13:48:21;1.00;99.90
71142;DHT22;58808;59.366;17.970;2023-02-11T13:50:49;1.00;99.90
71142;DHT22;58808;59.366;17.970;2023-02-11T13:53:16;0.90;99.90
71142;DHT22;58808;59.366;17.970;2023-02-11T13:55:45;0.90;99.90
71142;DHT22;58808;59.366;17.970;2023-02-11T13:58:17;0.90;99.90
71142;DHT22;58808;59.366;17.970;2023-02-11T14:00:49;0.80;99.90
71142;DHT22;58808;59.366;17.970;2023-02-11T14:03:20;0.80;99.90
71142;DHT22;58808;59.366;17.970;2023-02-11T14:11:49;0.60;99.90
71142;DHT22;58808;59.366;17.970;2023-02-11T14:19:43;0.60;99.90
71142;DHT22;58808;59.366;17.970;2023-02-11T14:24:52;0.50;99.90
71142;DHT22;58808;59.366;17.970;2023-02-11T14:38:33;0.40;99.90
71142;DHT22;58808;59.366;17.970;2023-02-11T14:41:02;0.40;99.90
71142;DHT22;58808;59.366;17.970;2023-02-11T14:44:05;0.40;99.90
71142;DHT22;58808;59.366;17.970;2023-02-11T14:46:43;0.40;99.90
71142;DHT22;58808;59.366;17.970;2023-02-11T14:49:31;0.40;99.90
71142;DHT22;58808;59.366;17.970;2023-02-11T14:52:27;0.30;99.90
71142;DHT22;58808;59.366;17.970;2023-02-11T14:57:33;0.30;99.90
71142;DHT22;58808;59.366;17.970;2023-02-11T15:00:03;0.30;99.90
71142;DHT22;58808;59.366;17.970;2023-02-11T15:02:35;0.20;99.90
71142;DHT22;58808;59.366;17.970;2023-02-11T15:05:21;0.20;99.90
71142;DHT22;58808;59.366;17.970;2023-02-11T15:07:51;0.10;99.90
71142;DHT22;58808;59.366;17.970;2023-02-11T15:10:32;0.10;99.90
71142;DHT22;58808;59.366;17.970;2023-02-11T15:13:00;0.10;99.90
71142;DHT22;58808;59.366;17.970;2023-02-11T15:15:28;0.00;99.90
71142;DHT22;58808;59.366;17.970;2023-02-11T15:17:58;0.00;99.90
71142;DHT22;58808;59.366;17.970;2023-02-11T15:20:27;-0.10;99.90
71142;DHT22;58808;59.366;17.970;2023-02-11T15:23:02;-0.10;99.90
71142;DHT22;58808;59.366;17.970;2023-02-11T15:25:30;-0.10;99.90
71142;DHT22;58808;59.366;17.970;2023-02-11T15:27:56;-0.20;99.90
71142;DHT22;58808;59.366;17.970;2023-02-11T15:30:28;-0.20;99.90
71142;DHT22;58808;59.366;17.970;2023-02-11T15:32:57;-0.10;99.90
71142;DHT22;58808;59.366;17.970;2023-02-11T15:35:39;-0.10;99.90
71142;DHT22;58808;59.366;17.970;2023-02-11T15:38:06;-0.10;99.90
71142;DHT22;58808;59.366;17.970;2023-02-11T15:40:35;-0.20;99.90
71142;DHT22;58808;59.366;17.970;2023-02-11T15:43:06;-0.20;99.90
71142;DHT22;58808;59.366;17.970;2023-02-11T15:45:58;-0.20;99.90
71142;DHT22;58808;59.366;17.970;2023-02-11T15:48:43;-0.20;99.90
71142;DHT22;58808;59.366;17.970;2023-02-11T15:53:52;-0.30;99.90
71142;DHT22;58808;59.366;17.970;2023-02-11T15:56:58;-0.30;99.90
71142;DHT22;58808;59.366;17.970;2023-02-11T15:59:31;-0.30;99.90
71142;DHT22;58808;59.366;17.970;2023-02-11T16:02:19;-0.30;99.90
71142;DHT22;58808;59.366;17.970;2023-02-11T16:04:58;-0.30;99.90
71142;DHT22;58808;59.366;17.970;2023-02-11T16:07:38;-0.40;99.90
71142;DHT22;58808;59.366;17.970;2023-02-11T16:12:53;-0.30;99.90
71142;DHT22;58808;59.366;17.970;2023-02-11T16:15:36;-0.30;99.90
71142;DHT22;58808;59.366;17.970;2023-02-11T16:18:18;-0.30;99.90
71142;DHT22;58808;59.366;17.970;2023-02-11T16:20:46;-0.30;99.90
71142;DHT22;58808;59.366;17.970;2023-02-11T16:23:21;-0.30;99.90
71142;DHT22;58808;59.366;17.970;2023-02-11T16:25:47;-0.30;99.90
71142;DHT22;58808;59.366;17.970;2023-02-11T16:28:15;-0.40;99.90
71142;DHT22;58808;59.366;17.970;2023-02-11T16:30:41;-0.30;99.90
71142;DHT22;58808;59.366;17.970;2023-02-11T16:33:09;-0.30;99.90
71142;DHT22;58808;59.366;17.970;2023-02-11T16:35:35;-0.30;99.90
71142;DHT22;58808;59.366;17.970;2023-02-11T16:38:04;-0.40;99.90
71142;DHT22;58808;59.366;17.970;2023-02-11T16:40:30;-0.40;99.90
71142;DHT22;58808;59.366;17.970;2023-02-11T16:42:56;-0.40;99.90
71142;DHT22;58808;59.366;17.970;2023-02-11T16:45:21;-0.40;99.90
71142;DHT22;58808;59.366;17.970;2023-02-11T16:47:47;-0.40;99.90
71142;DHT22;58808;59.366;17.970;2023-02-11T16:50:24;-0.50;99.90
71142;DHT22;58808;59.366;17.970;2023-02-11T16:52:50;-0.50;99.90
71142;DHT22;58808;59.366;17.970;2023-02-11T16:55:17;-0.50;99.90
71142;DHT22;58808;59.366;17.970;2023-02-11T16:57:43;-0.50;99.90
71142;DHT22;58808;59.366;17.970;2023-02-11T17:00:10;-0.50;99.90
71142;DHT22;58808;59.366;17.970;2023-02-11T17:02:42;-0.50;99.90
71142;DHT22;58808;59.366;17.970;2023-02-11T17:05:16;-0.40;99.90
71142;DHT22;58808;59.366;17.970;2023-02-11T17:07:43;-0.40;99.90
71142;DHT22;58808;59.366;17.970;2023-02-11T17:10:17;-0.50;99.90
71142;DHT22;58808;59.366;17.970;2023-02-11T17:12:43;-0.50;99.90
71142;DHT22;58808;59.366;17.970;2023-02-11T17:15:09;-0.50;99.90
71142;DHT22;58808;59.366;17.970;2023-02-11T17:17:35;-0.50;99.90
71142;DHT22;58808;59.366;17.970;2023-02-11T17:20:01;-0.50;99.90
71142;DHT22;58808;59.366;17.970;2023-02-11T17:22:27;-0.60;99.90
71142;DHT22;58808;59.366;17.970;2023-02-11T17:24:52;-0.60;99.90
71142;DHT22;58808;59.366;17.970;2023-02-11T17:27:20;-0.60;99.90
71142;DHT22;58808;59.366;17.970;2023-02-11T17:29:46;-0.60;99.90
71142;DHT22;58808;59.366;17.970;2023-02-11T17:32:11;-0.60;99.90
71142;DHT22;58808;59.366;17.970;2023-02-11T17:34:37;-0.70;99.90
71142;DHT22;58808;59.366;17.970;2023-02-11T17:37:03;-0.70;99.90
71142;DHT22;58808;59.366;17.970;2023-02-11T17:39:36;-0.70;99.90
71142;DHT22;58808;59.366;17.970;2023-02-11T17:42:02;-0.70;99.90
71142;DHT22;58808;59.366;17.970;2023-02-11T17:44:28;-0.70;99.90
71142;DHT22;58808;59.366;17.970;2023-02-11T17:46:54;-0.70;99.90
71142;DHT22;58808;59.366;17.970;2023-02-11T17:49:19;-0.70;99.90
71142;DHT22;58808;59.366;17.970;2023-02-11T17:51:45;-0.80;99.90
71142;DHT22;58808;59.366;17.970;2023-02-11T17:54:17;-0.80;99.90
71142;DHT22;58808;59.366;17.970;2023-02-11T17:56:44;-0.80;99.90
71142;DHT22;58808;59.366;17.970;2023-02-11T17:59:11;-0.80;99.90
71142;DHT22;58808;59.366;17.970;2023-02-11T18:01:38;-0.80;99.90
71142;DHT22;58808;59.366;17.970;2023-02-11T18:04:06;-0.80;99.90
71142;DHT22;58808;59.366;17.970;2023-02-11T18:06:32;-0.80;99.90
71142;DHT22;58808;59.366;17.970;2023-02-11T18:08:59;-0.90;99.90
71142;DHT22;58808;59.366;17.970;2023-02-11T18:11:27;-0.90;99.90
71142;DHT22;58808;59.366;17.970;2023-02-11T18:13:57;-0.90;99.90
71142;DHT22;58808;59.366;17.970;2023-02-11T18:16:23;-0.90;99.90
71142;DHT22;58808;59.366;17.970;2023-02-11T18:18:50;-0.90;99.90
71142;DHT22;58808;59.366;17.970;2023-02-11T18:21:18;-0.90;99.90
71142;DHT22;58808;59.366;17.970;2023-02-11T18:23:44;-0.90;99.90
71142;DHT22;58808;59.366;17.970;2023-02-11T18:26:12;-0.90;99.90
71142;DHT22;58808;59.366;17.970;2023-02-11T18:28:38;-1.00;99.90